sensor_id;sensor_type;location;lat;lon;timestamp;pressure;altitude;pressure_sealevel;temperature;humidity
51468;BME280;37545;45.302;-122.946;2023-05-09T00:00:03;100919.25;;;16.46;74.67
51468;BME280;37545;45.302;-122.946;2023-05-09T00:02:36;100916.56;;;16.37;74.64
51468;BME280;37545;45.302;-122.946;2023-05-09T00:05:06;100916.50;;;16.29;73.69
51468;BME280;37545;45.302;-122.946;2023-05-09T00:07:37;100925.13;;;16.21;76.44
51468;BME280;37545;45.302;-122.946;2023-05-09T00:10:06;100927.66;;;16.11;79.30
51468;BME280;37545;45.302;-122.946;2023-05-09T00:12:34;100934.47;;;15.99;81.69
51468;BME280;37545;45.302;-122.946;2023-05-09T00:15:04;100930.88;;;15.83;83.65
51468;BME280;37545;45.302;-122.946;2023-05-09T00:17:33;100935.03;;;15.70;87.41
51468;BME280;37545;45.302;-122.946;2023-05-09T00:20:04;100926.97;;;15.50;87.76
51468;BME280;37545;45.302;-122.946;2023-05-09T00:22:36;100933.84;;;15.43;87.77
51468;BME280;37545;45.302;-122.946;2023-05-09T00:25:06;100944.22;;;15.37;90.74
51468;BME280;37545;45.302;-122.946;2023-05-09T00:27:34;100951.13;;;15.37;92.36
51468;BME280;37545;45.302;-122.946;2023-05-09T00:30:04;100965.03;;;15.36;93.81
51468;BME280;37545;45.302;-122.946;2023-05-09T00:32:33;100964.09;;;15.31;95.46
51468;BME280;37545;45.302;-122.946;2023-05-09T00:35:02;100967.44;;;15.19;99.01
51468;BME280;37545;45.302;-122.946;2023-05-09T00:37:30;100973.28;;;15.04;97.53
51468;BME280;37545;45.302;-122.946;2023-05-09T00:40:01;100972.25;;;14.93;97.26
51468;BME280;37545;45.302;-122.946;2023-05-09T00:42:31;100980.84;;;14.87;96.92
51468;BME280;37545;45.302;-122.946;2023-05-09T00:45:01;100985.97;;;14.81;97.19
51468;BME280;37545;45.302;-122.946;2023-05-09T00:47:30;100979.66;;;14.68;97.33
51468;BME280;37545;45.302;-122.946;2023-05-09T00:49:59;100996.75;;;14.54;96.98
51468;BME280;37545;45.302;-122.946;2023-05-09T00:52:27;100998.97;;;14.31;97.53
51468;BME280;37545;45.302;-122.946;2023-05-09T00:54:57;100986.44;;;14.10;99.73
51468;BME280;37545;45.302;-122.946;2023-05-09T00:57:27;100979.03;;;13.86;100.00
51468;BME280;37545;45.302;-122.946;2023-05-09T00:59:56;100989.22;;;13.75;100.00
51468;BME280;37545;45.302;-122.946;2023-05-09T01:02:24;100983.03;;;13.70;100.00
51468;BME280;37545;45.302;-122.946;2023-05-09T01:04:53;100978.69;;;13.69;100.00
51468;BME280;37545;45.302;-122.946;2023-05-09T01:07:25;100981.28;;;13.69;100.00
51468;BME280;37545;45.302;-122.946;2023-05-09T01:10:01;100983.03;;;13.70;100.00
51468;BME280;37545;45.302;-122.946;2023-05-09T01:12:38;100986.53;;;13.72;100.00
51468;BME280;37545;45.302;-122.946;2023-05-09T01:15:12;100981.34;;;13.72;100.00
51468;BME280;37545;45.302;-122.946;2023-05-09T01:17:50;100983.13;;;13.73;100.00
51468;BME280;37545;45.302;-122.946;2023-05-09T01:20:25;100975.28;;;13.71;100.00
51468;BME280;37545;45.302;-122.946;2023-05-09T01:23:12;100980.53;;;13.73;100.00
51468;BME280;37545;45.302;-122.946;2023-05-09T01:25:48;100981.25;;;13.66;100.00
51468;BME280;37545;45.302;-122.946;2023-05-09T01:28:35;100982.97;;;13.67;100.00
51468;BME280;37545;45.302;-122.946;2023-05-09T01:31:19;100990.00;;;13.71;100.00
51468;BME280;37545;45.302;-122.946;2023-05-09T01:33:51;100984.84;;;13.74;100.00
51468;BME280;37545;45.302;-122.946;2023-05-09T01:36:21;100989.16;;;13.72;100.00
51468;BME280;37545;45.302;-122.946;2023-05-09T01:38:51;100990.00;;;13.71;100.00
51468;BME280;37545;45.302;-122.946;2023-05-09T01:41:22;100992.59;;;13.71;100.00
51468;BME280;37545;45.302;-122.946;2023-05-09T01:43:51;100988.22;;;13.70;100.00
51468;BME280;37545;45.302;-122.946;2023-05-09T01:46:25;100997.78;;;13.69;100.00
51468;BME280;37545;45.302;-122.946;2023-05-09T01:48:55;100998.72;;;13.73;100.00
51468;BME280;37545;45.302;-122.946;2023-05-09T01:51:25;100983.84;;;13.67;100.00
51468;BME280;37545;45.302;-122.946;2023-05-09T01:53:56;100998.78;;;13.76;100.00
51468;BME280;37545;45.302;-122.946;2023-05-09T01:56:25;100997.09;;;13.78;100.00
51468;BME280;37545;45.302;-122.946;2023-05-09T01:58:55;101004.06;;;13.79;100.00
51468;BME280;37545;45.302;-122.946;2023-05-09T02:01:26;101003.97;;;13.76;100.00
51468;BME280;37545;45.302;-122.946;2023-05-09T02:03:57;101008.41;;;13.80;100.00
51468;BME280;37545;45.302;-122.946;2023-05-09T02:06:26;101011.06;;;13.83;100.00
51468;BME280;37545;45.302;-122.946;2023-05-09T02:08:56;101014.56;;;13.83;100.00
51468;BME280;37545;45.302;-122.946;2023-05-09T02:11:25;101011.91;;;13.82;100.00
51468;BME280;37545;45.302;-122.946;2023-05-09T02:13:54;101012.75;;;13.81;100.00
51468;BME280;37545;45.302;-122.946;2023-05-09T02:16:22;101024.91;;;13.82;100.00
51468;BME280;37545;45.302;-122.946;2023-05-09T02:18:53;101020.53;;;13.81;100.00
51468;BME280;37545;45.302;-122.946;2023-05-09T02:21:22;101024.91;;;13.82;100.00
51468;BME280;37545;45.302;-122.946;2023-05-09T02:23:50;101023.19;;;13.82;100.00
51468;BME280;37545;45.302;-122.946;2023-05-09T02:26:19;101026.66;;;13.83;100.00
51468;BME280;37545;45.302;-122.946;2023-05-09T02:28:48;101022.34;;;13.83;100.00
51468;BME280;37545;45.302;-122.946;2023-05-09T02:31:19;101027.56;;;13.85;100.00
51468;BME280;37545;45.302;-122.946;2023-05-09T02:33:50;101026.75;;;13.88;100.00
51468;BME280;37545;45.302;-122.946;2023-05-09T02:36:22;101027.75;;;13.93;100.00
51468;BME280;37545;45.302;-122.946;2023-05-09T02:38:51;101026.00;;;13.93;100.00
51468;BME280;37545;45.302;-122.946;2023-05-09T02:41:19;101031.22;;;13.95;100.00
51468;BME280;37545;45.302;-122.946;2023-05-09T02:43:48;101035.69;;;14.00;100.00
51468;BME280;37545;45.302;-122.946;2023-05-09T02:46:16;101034.00;;;14.02;100.00
51468;BME280;37545;45.302;-122.946;2023-05-09T02:48:45;101036.56;;;14.01;100.00
51468;BME280;37545;45.302;-122.946;2023-05-09T02:51:14;101037.38;;;13.98;100.00
51468;BME280;37545;45.302;-122.946;2023-05-09T02:53:44;101035.59;;;13.96;100.00
51468;BME280;37545;45.302;-122.946;2023-05-09T02:56:12;101040.81;;;13.96;100.00
51468;BME280;37545;45.302;-122.946;2023-05-09T02:58:41;101043.41;;;13.96;100.00
51468;BME280;37545;45.302;-122.946;2023-05-09T03:01:16;101039.94;;;13.95;100.00
51468;BME280;37545;45.302;-122.946;2023-05-09T03:03:45;101051.16;;;13.94;100.00
51468;BME280;37545;45.302;-122.946;2023-05-09T03:06:13;101048.56;;;13.93;100.00
51468;BME280;37545;45.302;-122.946;2023-05-09T03:08:43;101051.88;;;13.87;100.00
51468;BME280;37545;45.302;-122.946;2023-05-09T03:11:12;101053.56;;;13.85;100.00
51468;BME280;37545;45.302;-122.946;2023-05-09T03:13:40;101048.38;;;13.83;100.00
51468;BME280;37545;45.302;-122.946;2023-05-09T03:16:12;101062.19;;;13.82;100.00
51468;BME280;37545;45.302;-122.946;2023-05-09T03:18:40;101065.66;;;13.81;100.00
51468;BME280;37545;45.302;-122.946;2023-05-09T03:21:09;101062.97;;;13.78;100.00
51468;BME280;37545;45.302;-122.946;2023-05-09T03:23:38;101062.06;;;13.76;100.00
51468;BME280;37545;45.302;-122.946;2023-05-09T03:26:09;101073.28;;;13.74;100.00
51468;BME280;37545;45.302;-122.946;2023-05-09T03:28:37;101071.44;;;13.70;100.00
51468;BME280;37545;45.302;-122.946;2023-05-09T03:31:06;101071.38;;;13.67;100.00
51468;BME280;37545;45.302;-122.946;2023-05-09T03:33:35;101081.75;;;13.64;100.00
51468;BME280;37545;45.302;-122.946;2023-05-09T03:36:03;101084.28;;;13.62;100.00
51468;BME280;37545;45.302;-122.946;2023-05-09T03:38:32;101097.25;;;13.60;100.00
51468;BME280;37545;45.302;-122.946;2023-05-09T03:41:01;101104.13;;;13.57;100.00
51468;BME280;37545;45.302;-122.946;2023-05-09T03:43:31;101102.25;;;13.51;100.00
51468;BME280;37545;45.302;-122.946;2023-05-09T03:46:00;101103.03;;;13.47;100.00
51468;BME280;37545;45.302;-122.946;2023-05-09T03:48:28;101108.19;;;13.46;100.00
51468;BME280;37545;45.302;-122.946;2023-05-09T03:50:57;101115.06;;;13.44;100.00
51468;BME280;37545;45.302;-122.946;2023-05-09T03:53:26;101113.22;;;13.39;100.00
51468;BME280;37545;45.302;-122.946;2023-05-09T03:55:54;101127.97;;;13.39;100.00
51468;BME280;37545;45.302;-122.946;2023-05-09T03:58:23;101125.28;;;13.36;100.00
51468;BME280;37545;45.302;-122.946;2023-05-09T04:00:54;101117.44;;;13.34;100.00
51468;BME280;37545;45.302;-122.946;2023-05-09T04:03:22;101126.09;;;13.33;100.00
51468;BME280;37545;45.302;-122.946;2023-05-09T04:05:52;101126.06;;;13.32;100.00
51468;BME280;37545;45.302;-122.946;2023-05-09T04:08:21;101132.06;;;13.29;100.00
51468;BME280;37545;45.302;-122.946;2023-05-09T04:10:50;101136.19;;;13.23;100.00
51468;BME280;37545;45.302;-122.946;2023-05-09T04:13:19;101135.81;;;13.07;100.00
51468;BME280;37545;45.302;-122.946;2023-05-09T04:15:47;101136.31;;;12.92;100.00
51468;BME280;37545;45.302;-122.946;2023-05-09T04:18:17;101136.00;;;12.82;100.00
51468;BME280;37545;45.302;-122.946;2023-05-09T04:20:46;101142.00;;;12.79;100.00
51468;BME280;37545;45.302;-122.946;2023-05-09T04:23:14;101141.94;;;12.76;100.00
51468;BME280;37545;45.302;-122.946;2023-05-09T04:25:43;101137.69;;;12.79;100.00
51468;BME280;37545;45.302;-122.946;2023-05-09T04:28:11;101140.22;;;12.76;100.00
51468;BME280;37545;45.302;-122.946;2023-05-09T04:30:40;101127.00;;;12.69;100.00
51468;BME280;37545;45.302;-122.946;2023-05-09T04:33:08;101132.13;;;12.66;100.00
51468;BME280;37545;45.302;-122.946;2023-05-09T04:35:39;101132.19;;;12.69;100.00
51468;BME280;37545;45.302;-122.946;2023-05-09T04:38:08;101143.50;;;12.69;100.00
51468;BME280;37545;45.302;-122.946;2023-05-09T04:40:36;101133.84;;;12.65;100.00
51468;BME280;37545;45.302;-122.946;2023-05-09T04:43:05;101145.16;;;12.67;100.00
51468;BME280;37545;45.302;-122.946;2023-05-09T04:45:34;101146.75;;;12.62;100.00
51468;BME280;37545;45.302;-122.946;2023-05-09T04:48:03;101152.59;;;12.55;100.00
51468;BME280;37545;45.302;-122.946;2023-05-09T04:50:32;101158.56;;;12.51;100.00
51468;BME280;37545;45.302;-122.946;2023-05-09T04:53:02;101161.97;;;12.50;100.00
51468;BME280;37545;45.302;-122.946;2023-05-09T04:55:31;101160.22;;;12.49;100.00
51468;BME280;37545;45.302;-122.946;2023-05-09T04:57:59;101165.41;;;12.49;100.00
51468;BME280;37545;45.302;-122.946;2023-05-09T05:00:28;101169.69;;;12.48;100.00
51468;BME280;37545;45.302;-122.946;2023-05-09T05:02:57;101168.84;;;12.48;100.00
51468;BME280;37545;45.302;-122.946;2023-05-09T05:05:26;101174.88;;;12.47;100.00
51468;BME280;37545;45.302;-122.946;2023-05-09T05:07:55;101173.94;;;12.45;100.00
51468;BME280;37545;45.302;-122.946;2023-05-09T05:10:25;101171.31;;;12.43;100.00
51468;BME280;37545;45.302;-122.946;2023-05-09T05:12:53;101162.38;;;12.33;100.00
51468;BME280;37545;45.302;-122.946;2023-05-09T05:15:22;101174.50;;;12.34;100.00
51468;BME280;37545;45.302;-122.946;2023-05-09T05:17:52;101177.03;;;12.31;100.00
51468;BME280;37545;45.302;-122.946;2023-05-09T05:20:20;101179.47;;;12.27;100.00
51468;BME280;37545;45.302;-122.946;2023-05-09T05:22:49;101187.91;;;12.20;100.00
51468;BME280;37545;45.302;-122.946;2023-05-09T05:25:17;101191.25;;;12.15;100.00
51468;BME280;37545;45.302;-122.946;2023-05-09T05:27:48;101191.97;;;12.10;100.00
51468;BME280;37545;45.302;-122.946;2023-05-09T05:30:16;101199.50;;;12.02;100.00
51468;BME280;37545;45.302;-122.946;2023-05-09T05:32:46;101201.78;;;11.91;100.00
51468;BME280;37545;45.302;-122.946;2023-05-09T05:35:15;101204.31;;;11.90;100.00
51468;BME280;37545;45.302;-122.946;2023-05-09T05:37:43;101205.19;;;11.90;100.00
51468;BME280;37545;45.302;-122.946;2023-05-09T05:40:12;101205.19;;;11.90;100.00
51468;BME280;37545;45.302;-122.946;2023-05-09T05:42:40;101205.97;;;11.88;100.00
51468;BME280;37545;45.302;-122.946;2023-05-09T05:45:11;101203.28;;;11.86;100.00
51468;BME280;37545;45.302;-122.946;2023-05-09T05:47:40;101204.88;;;11.81;100.00
51468;BME280;37545;45.302;-122.946;2023-05-09T05:50:08;101206.34;;;11.73;100.00
51468;BME280;37545;45.302;-122.946;2023-05-09T05:52:37;101204.47;;;11.69;100.00
51468;BME280;37545;45.302;-122.946;2023-05-09T05:55:06;101204.38;;;11.66;100.00
51468;BME280;37545;45.302;-122.946;2023-05-09T05:57:35;101211.41;;;11.70;100.00
51468;BME280;37545;45.302;-122.946;2023-05-09T06:00:05;101209.66;;;11.69;100.00
51468;BME280;37545;45.302;-122.946;2023-05-09T06:02:37;101218.25;;;11.68;100.00
51468;BME280;37545;45.302;-122.946;2023-05-09T06:05:07;101223.34;;;11.65;100.00
51468;BME280;37545;45.302;-122.946;2023-05-09T06:07:35;101225.00;;;11.63;100.00
51468;BME280;37545;45.302;-122.946;2023-05-09T06:10:06;101219.75;;;11.60;100.00
51468;BME280;37545;45.302;-122.946;2023-05-09T06:12:35;101226.38;;;11.51;100.00
51468;BME280;37545;45.302;-122.946;2023-05-09T06:15:04;101220.94;;;11.44;100.00
51468;BME280;37545;45.302;-122.946;2023-05-09T06:17:33;101224.16;;;11.37;100.00
51468;BME280;37545;45.302;-122.946;2023-05-09T06:20:05;101225.88;;;11.36;100.00
51468;BME280;37545;45.302;-122.946;2023-05-09T06:22:34;101236.13;;;11.33;100.00
51468;BME280;37545;45.302;-122.946;2023-05-09T06:25:03;101232.59;;;11.31;100.00
51468;BME280;37545;45.302;-122.946;2023-05-09T06:27:32;101234.38;;;11.32;100.00
51468;BME280;37545;45.302;-122.946;2023-05-09T06:30:01;101230.91;;;11.31;100.00
51468;BME280;37545;45.302;-122.946;2023-05-09T06:32:30;101235.16;;;11.29;100.00
51468;BME280;37545;45.302;-122.946;2023-05-09T06:34:59;101237.69;;;11.28;100.00
51468;BME280;37545;45.302;-122.946;2023-05-09T06:37:32;101232.50;;;11.28;100.00
51468;BME280;37545;45.302;-122.946;2023-05-09T06:40:01;101241.06;;;11.27;100.00
51468;BME280;37545;45.302;-122.946;2023-05-09T06:42:29;101243.63;;;11.25;100.00
51468;BME280;37545;45.302;-122.946;2023-05-09T06:44:59;101240.97;;;11.24;100.00
51468;BME280;37545;45.302;-122.946;2023-05-09T06:47:27;101243.50;;;11.22;100.00
51468;BME280;37545;45.302;-122.946;2023-05-09T06:49:56;101246.94;;;11.21;100.00
51468;BME280;37545;45.302;-122.946;2023-05-09T06:52:25;101255.59;;;11.22;100.00
51468;BME280;37545;45.302;-122.946;2023-05-09T06:54:55;101253.00;;;11.22;100.00
51468;BME280;37545;45.302;-122.946;2023-05-09T06:57:31;101262.47;;;11.21;100.00
51468;BME280;37545;45.302;-122.946;2023-05-09T07:00:00;101250.31;;;11.19;100.00
51468;BME280;37545;45.302;-122.946;2023-05-09T07:02:30;101252.97;;;11.20;100.00
51468;BME280;37545;45.302;-122.946;2023-05-09T07:04:58;101264.13;;;11.19;100.00
51468;BME280;37545;45.302;-122.946;2023-05-09T07:07:27;101257.16;;;11.17;100.00
51468;BME280;37545;45.302;-122.946;2023-05-09T07:09:57;101267.41;;;11.14;100.00
51468;BME280;37545;45.302;-122.946;2023-05-09T07:12:30;101266.25;;;11.05;100.00
51468;BME280;37545;45.302;-122.946;2023-05-09T07:14:59;101269.38;;;10.97;100.00
51468;BME280;37545;45.302;-122.946;2023-05-09T07:17:27;101268.34;;;10.92;100.00
51468;BME280;37545;45.302;-122.946;2023-05-09T07:19:56;101261.28;;;10.87;100.00
51468;BME280;37545;45.302;-122.946;2023-05-09T07:22:25;101259.28;;;10.80;100.00
51468;BME280;37545;45.302;-122.946;2023-05-09T07:24:54;101264.41;;;10.79;100.00
51468;BME280;37545;45.302;-122.946;2023-05-09T07:27:24;101267.00;;;10.79;100.00
51468;BME280;37545;45.302;-122.946;2023-05-09T07:29:53;101265.47;;;10.84;100.00
51468;BME280;37545;45.302;-122.946;2023-05-09T07:32:22;101272.41;;;10.85;100.00
51468;BME280;37545;45.302;-122.946;2023-05-09T07:34:50;101269.00;;;10.86;100.00
51468;BME280;37545;45.302;-122.946;2023-05-09T07:37:19;101275.88;;;10.85;100.00
51468;BME280;37545;45.302;-122.946;2023-05-09T07:39:48;101275.00;;;10.85;100.00
51468;BME280;37545;45.302;-122.946;2023-05-09T07:42:17;101277.59;;;10.85;100.00
51468;BME280;37545;45.302;-122.946;2023-05-09T07:44:47;101281.81;;;10.83;100.00
51468;BME280;37545;45.302;-122.946;2023-05-09T07:47:16;101285.25;;;10.82;100.00
51468;BME280;37545;45.302;-122.946;2023-05-09T07:49:44;101285.19;;;10.80;100.00
51468;BME280;37545;45.302;-122.946;2023-05-09T07:52:13;101294.56;;;10.77;100.00
51468;BME280;37545;45.302;-122.946;2023-05-09T07:54:42;101294.41;;;10.74;100.00
51468;BME280;37545;45.302;-122.946;2023-05-09T07:57:11;101296.06;;;10.72;100.00
51468;BME280;37545;45.302;-122.946;2023-05-09T07:59:40;101303.66;;;10.67;100.00
51468;BME280;37545;45.302;-122.946;2023-05-09T08:02:10;101307.97;;;10.66;100.00
51468;BME280;37545;45.302;-122.946;2023-05-09T08:04:39;101307.09;;;10.66;100.00
51468;BME280;37545;45.302;-122.946;2023-05-09T08:07:08;101296.50;;;10.60;100.00
51468;BME280;37545;45.302;-122.946;2023-05-09T08:09:37;101309.50;;;10.61;100.00
51468;BME280;37545;45.302;-122.946;2023-05-09T08:12:06;101301.50;;;10.55;100.00
51468;BME280;37545;45.302;-122.946;2023-05-09T08:14:34;101309.41;;;10.58;100.00
51468;BME280;37545;45.302;-122.946;2023-05-09T08:17:03;101311.03;;;10.56;100.00
51468;BME280;37545;45.302;-122.946;2023-05-09T08:19:33;101314.44;;;10.55;100.00
51468;BME280;37545;45.302;-122.946;2023-05-09T08:22:02;101316.97;;;10.54;100.00
51468;BME280;37545;45.302;-122.946;2023-05-09T08:24:30;101315.97;;;10.50;100.00
51468;BME280;37545;45.302;-122.946;2023-05-09T08:26:59;101311.56;;;10.47;100.00
51468;BME280;37545;45.302;-122.946;2023-05-09T08:29:28;101317.44;;;10.43;100.00
51468;BME280;37545;45.302;-122.946;2023-05-09T08:31:56;101315.50;;;10.38;100.00
51468;BME280;37545;45.302;-122.946;2023-05-09T08:34:25;101316.22;;;10.35;100.00
51468;BME280;37545;45.302;-122.946;2023-05-09T08:36:55;101329.13;;;10.34;100.00
51468;BME280;37545;45.302;-122.946;2023-05-09T08:39:24;101330.78;;;10.32;100.00
51468;BME280;37545;45.302;-122.946;2023-05-09T08:41:57;101326.25;;;10.27;100.00
51468;BME280;37545;45.302;-122.946;2023-05-09T08:44:27;101337.44;;;10.26;100.00
51468;BME280;37545;45.302;-122.946;2023-05-09T08:46:58;101336.50;;;10.24;100.00
51468;BME280;37545;45.302;-122.946;2023-05-09T08:49:27;101332.00;;;10.20;100.00
51468;BME280;37545;45.302;-122.946;2023-05-09T08:51:58;101337.06;;;10.17;100.00
51468;BME280;37545;45.302;-122.946;2023-05-09T08:54:27;101331.75;;;10.14;100.00
51468;BME280;37545;45.302;-122.946;2023-05-09T08:56:55;101334.22;;;10.11;100.00
51468;BME280;37545;45.302;-122.946;2023-05-09T08:59:25;101331.53;;;10.08;100.00
51468;BME280;37545;45.302;-122.946;2023-05-09T09:01:55;101344.31;;;10.05;100.00
51468;BME280;37545;45.302;-122.946;2023-05-09T09:04:24;101341.59;;;10.02;100.00
51468;BME280;37545;45.302;-122.946;2023-05-09T09:06:53;101347.56;;;10.01;100.00
51468;BME280;37545;45.302;-122.946;2023-05-09T09:09:23;101350.88;;;9.97;100.00
51468;BME280;37545;45.302;-122.946;2023-05-09T09:11:52;101357.72;;;9.96;100.00
51468;BME280;37545;45.302;-122.946;2023-05-09T09:14:23;101358.50;;;9.94;100.00
51468;BME280;37545;45.302;-122.946;2023-05-09T09:16:54;101350.44;;;9.86;100.00
51468;BME280;37545;45.302;-122.946;2023-05-09T09:19:26;101359.88;;;9.85;100.00
51468;BME280;37545;45.302;-122.946;2023-05-09T09:21:58;101356.34;;;9.83;100.00
51468;BME280;37545;45.302;-122.946;2023-05-09T09:24:31;101354.53;;;9.81;100.00
51468;BME280;37545;45.302;-122.946;2023-05-09T09:27:05;101363.03;;;9.78;100.00
51468;BME280;37545;45.302;-122.946;2023-05-09T09:29:34;101361.25;;;9.77;100.00
51468;BME280;37545;45.302;-122.946;2023-05-09T09:32:05;101360.38;;;9.77;100.00
51468;BME280;37545;45.302;-122.946;2023-05-09T09:34:34;101362.88;;;9.75;100.00
51468;BME280;37545;45.302;-122.946;2023-05-09T09:37:02;101361.94;;;9.73;100.00
51468;BME280;37545;45.302;-122.946;2023-05-09T09:39:35;101368.81;;;9.73;100.00
51468;BME280;37545;45.302;-122.946;2023-05-09T09:42:10;101361.00;;;9.71;100.00
51468;BME280;37545;45.302;-122.946;2023-05-09T09:44:39;101366.19;;;9.71;100.00
51468;BME280;37545;45.302;-122.946;2023-05-09T09:47:09;101364.41;;;9.70;100.00
51468;BME280;37545;45.302;-122.946;2023-05-09T09:49:45;101364.41;;;9.70;100.00
51468;BME280;37545;45.302;-122.946;2023-05-09T09:52:22;101366.91;;;9.69;100.00
51468;BME280;37545;45.302;-122.946;2023-05-09T09:54:56;101361.75;;;9.69;100.00
51468;BME280;37545;45.302;-122.946;2023-05-09T09:57:33;101366.03;;;9.68;100.00
51468;BME280;37545;45.302;-122.946;2023-05-09T10:00:03;101362.50;;;9.66;100.00
51468;BME280;37545;45.302;-122.946;2023-05-09T10:02:32;101370.25;;;9.66;100.00
51468;BME280;37545;45.302;-122.946;2023-05-09T10:05:08;101372.72;;;9.63;100.00
51468;BME280;37545;45.302;-122.946;2023-05-09T10:07:36;101372.63;;;9.61;100.00
51468;BME280;37545;45.302;-122.946;2023-05-09T10:10:08;101370.81;;;9.59;100.00
51468;BME280;37545;45.302;-122.946;2023-05-09T10:12:36;101373.09;;;9.53;100.00
51468;BME280;37545;45.302;-122.946;2023-05-09T10:15:08;101384.81;;;9.44;100.00
51468;BME280;37545;45.302;-122.946;2023-05-09T10:17:37;101384.50;;;9.37;100.00
51468;BME280;37545;45.302;-122.946;2023-05-09T10:20:07;101384.34;;;9.34;100.00
51468;BME280;37545;45.302;-122.946;2023-05-09T10:22:38;101387.00;;;9.35;100.00
51468;BME280;37545;45.302;-122.946;2023-05-09T10:25:13;101385.28;;;9.36;100.00
51468;BME280;37545;45.302;-122.946;2023-05-09T10:27:45;101388.72;;;9.35;100.00
51468;BME280;37545;45.302;-122.946;2023-05-09T10:30:18;101380.97;;;9.35;100.00
51468;BME280;37545;45.302;-122.946;2023-05-09T10:32:51;101389.47;;;9.32;100.00
51468;BME280;37545;45.302;-122.946;2023-05-09T10:35:23;101390.94;;;9.27;100.00
51468;BME280;37545;45.302;-122.946;2023-05-09T10:37:55;101383.19;;;9.27;100.00
51468;BME280;37545;45.302;-122.946;2023-05-09T10:40:27;101393.50;;;9.27;100.00
51468;BME280;37545;45.302;-122.946;2023-05-09T10:42:55;101388.34;;;9.27;100.00
51468;BME280;37545;45.302;-122.946;2023-05-09T10:45:24;101388.34;;;9.27;100.00
51468;BME280;37545;45.302;-122.946;2023-05-09T10:47:53;101389.19;;;9.26;100.00
51468;BME280;37545;45.302;-122.946;2023-05-09T10:50:23;101387.38;;;9.25;100.00
51468;BME280;37545;45.302;-122.946;2023-05-09T10:53:06;101389.97;;;9.25;100.00
51468;BME280;37545;45.302;-122.946;2023-05-09T10:55:47;101391.59;;;9.23;100.00
51468;BME280;37545;45.302;-122.946;2023-05-09T10:58:21;101386.31;;;9.20;100.00
51468;BME280;37545;45.302;-122.946;2023-05-09T11:00:53;101391.47;;;9.20;100.00
51468;BME280;37545;45.302;-122.946;2023-05-09T11:03:22;101396.63;;;9.20;100.00
51468;BME280;37545;45.302;-122.946;2023-05-09T11:05:51;101401.66;;;9.17;100.00
51468;BME280;37545;45.302;-122.946;2023-05-09T11:08:22;101399.88;;;9.16;100.00
51468;BME280;37545;45.302;-122.946;2023-05-09T11:10:54;101396.34;;;9.14;100.00
51468;BME280;37545;45.302;-122.946;2023-05-09T11:13:24;101399.75;;;9.13;100.00
51468;BME280;37545;45.302;-122.946;2023-05-09T11:16:09;101408.31;;;9.12;100.00
51468;BME280;37545;45.302;-122.946;2023-05-09T11:18:50;101401.25;;;9.08;100.00
51468;BME280;37545;45.302;-122.946;2023-05-09T11:21:20;101402.88;;;9.06;100.00
51468;BME280;37545;45.302;-122.946;2023-05-09T11:23:50;101402.75;;;9.02;100.00
51468;BME280;37545;45.302;-122.946;2023-05-09T11:26:21;101403.41;;;8.98;100.00
51468;BME280;37545;45.302;-122.946;2023-05-09T11:28:53;101401.56;;;8.96;100.00
51468;BME280;37545;45.302;-122.946;2023-05-09T11:31:22;101401.38;;;8.91;100.00
51468;BME280;37545;45.302;-122.946;2023-05-09T11:33:50;101398.63;;;8.88;100.00
51468;BME280;37545;45.302;-122.946;2023-05-09T11:36:32;101401.16;;;8.87;100.00
51468;BME280;37545;45.302;-122.946;2023-05-09T11:39:04;101402.81;;;8.86;100.00
51468;BME280;37545;45.302;-122.946;2023-05-09T11:41:42;101405.41;;;8.86;100.00
51468;BME280;37545;45.302;-122.946;2023-05-09T11:44:17;101400.25;;;8.86;100.00
51468;BME280;37545;45.302;-122.946;2023-05-09T11:46:46;101401.06;;;8.85;100.00
51468;BME280;37545;45.302;-122.946;2023-05-09T11:49:15;101405.28;;;8.83;100.00
51468;BME280;37545;45.302;-122.946;2023-05-09T11:51:44;101400.94;;;8.82;100.00
51468;BME280;37545;45.302;-122.946;2023-05-09T11:54:13;101393.91;;;8.79;100.00
51468;BME280;37545;45.302;-122.946;2023-05-09T11:56:44;101400.84;;;8.80;100.00
51468;BME280;37545;45.302;-122.946;2023-05-09T11:59:13;101392.91;;;8.76;100.00
51468;BME280;37545;45.302;-122.946;2023-05-09T12:01:41;101402.34;;;8.75;100.00
51468;BME280;37545;45.302;-122.946;2023-05-09T12:04:10;101396.22;;;8.73;100.00
51468;BME280;37545;45.302;-122.946;2023-05-09T12:06:38;101405.44;;;8.68;100.00
51468;BME280;37545;45.302;-122.946;2023-05-09T12:09:08;101392.31;;;8.64;100.00
51468;BME280;37545;45.302;-122.946;2023-05-09T12:11:49;101393.13;;;8.63;100.00
51468;BME280;37545;45.302;-122.946;2023-05-09T12:14:28;101398.19;;;8.61;100.00
51468;BME280;37545;45.302;-122.946;2023-05-09T12:16:57;101395.56;;;8.59;100.00
51468;BME280;37545;45.302;-122.946;2023-05-09T12:19:26;101397.19;;;8.57;100.00
51468;BME280;37545;45.302;-122.946;2023-05-09T12:21:55;101400.41;;;8.53;100.00
51468;BME280;37545;45.302;-122.946;2023-05-09T12:24:25;101398.66;;;8.52;100.00
51468;BME280;37545;45.302;-122.946;2023-05-09T12:26:56;101388.91;;;8.47;100.00